sensor_id;sensor_type;location;lat;lon;timestamp;P1;durP1;ratioP1;P2;durP2;ratioP2
11078;SDS011;5592;49.234;7.268;2023-03-05T00:02:10;16.27;;;8.83;;
11078;SDS011;5592;49.234;7.268;2023-03-05T00:04:37;17.73;;;6.63;;
11078;SDS011;5592;49.234;7.268;2023-03-05T00:07:02;15.70;;;8.03;;
11078;SDS011;5592;49.234;7.268;2023-03-05T00:09:29;19.30;;;7.23;;
11078;SDS011;5592;49.234;7.268;2023-03-05T00:11:55;16.80;;;7.43;;
11078;SDS011;5592;49.234;7.268;2023-03-05T00:14:21;27.73;;;8.13;;
11078;SDS011;5592;49.234;7.268;2023-03-05T00:16:46;14.90;;;7.20;;
11078;SDS011;5592;49.234;7.268;2023-03-05T00:19:12;17.43;;;8.80;;
11078;SDS011;5592;49.234;7.268;2023-03-05T00:21:39;17.23;;;8.23;;
11078;SDS011;5592;49.234;7.268;2023-03-05T00:24:06;16.43;;;7.77;;
11078;SDS011;5592;49.234;7.268;2023-03-05T00:26:36;16.87;;;8.67;;
11078;SDS011;5592;49.234;7.268;2023-03-05T00:29:03;14.37;;;7.33;;
11078;SDS011;5592;49.234;7.268;2023-03-05T00:31:30;18.73;;;9.13;;
11078;SDS011;5592;49.234;7.268;2023-03-05T00:34:00;20.93;;;7.93;;
11078;SDS011;5592;49.234;7.268;2023-03-05T00:36:31;21.47;;;8.37;;
11078;SDS011;5592;49.234;7.268;2023-03-05T00:38:57;12.17;;;6.93;;
11078;SDS011;5592;49.234;7.268;2023-03-05T00:41:23;16.80;;;7.50;;
11078;SDS011;5592;49.234;7.268;2023-03-05T00:43:49;18.87;;;7.97;;
11078;SDS011;5592;49.234;7.268;2023-03-05T00:46:14;19.27;;;9.23;;
11078;SDS011;5592;49.234;7.268;2023-03-05T00:48:40;19.97;;;8.77;;
11078;SDS011;5592;49.234;7.268;2023-03-05T00:51:06;17.90;;;8.07;;
11078;SDS011;5592;49.234;7.268;2023-03-05T00:53:34;25.03;;;10.53;;
11078;SDS011;5592;49.234;7.268;2023-03-05T00:56:00;18.80;;;8.40;;
11078;SDS011;5592;49.234;7.268;2023-03-05T00:58:27;18.50;;;9.70;;
11078;SDS011;5592;49.234;7.268;2023-03-05T01:00:56;19.83;;;9.30;;
11078;SDS011;5592;49.234;7.268;2023-03-05T01:03:23;17.80;;;8.70;;
11078;SDS011;5592;49.234;7.268;2023-03-05T01:05:49;17.83;;;8.93;;
11078;SDS011;5592;49.234;7.268;2023-03-05T01:08:14;21.60;;;9.03;;
11078;SDS011;5592;49.234;7.268;2023-03-05T01:10:40;17.30;;;9.13;;
11078;SDS011;5592;49.234;7.268;2023-03-05T01:13:06;18.60;;;8.80;;
11078;SDS011;5592;49.234;7.268;2023-03-05T01:15:32;13.20;;;7.70;;
11078;SDS011;5592;49.234;7.268;2023-03-05T01:17:57;14.23;;;8.00;;
11078;SDS011;5592;49.234;7.268;2023-03-05T01:20:23;19.17;;;8.73;;
11078;SDS011;5592;49.234;7.268;2023-03-05T01:22:49;19.07;;;7.50;;
11078;SDS011;5592;49.234;7.268;2023-03-05T01:25:15;15.83;;;8.40;;
11078;SDS011;5592;49.234;7.268;2023-03-05T01:27:41;17.37;;;7.47;;
11078;SDS011;5592;49.234;7.268;2023-03-05T01:30:07;19.20;;;8.30;;
11078;SDS011;5592;49.234;7.268;2023-03-05T01:32:34;18.97;;;8.80;;
11078;SDS011;5592;49.234;7.268;2023-03-05T01:35:00;18.80;;;9.27;;
11078;SDS011;5592;49.234;7.268;2023-03-05T01:37:27;18.77;;;8.70;;
11078;SDS011;5592;49.234;7.268;2023-03-05T01:39:53;20.90;;;9.60;;
11078;SDS011;5592;49.234;7.268;2023-03-05T01:42:19;19.60;;;9.40;;
11078;SDS011;5592;49.234;7.268;2023-03-05T01:44:58;23.00;;;8.57;;
11078;SDS011;5592;49.234;7.268;2023-03-05T01:47:26;18.33;;;9.20;;
11078;SDS011;5592;49.234;7.268;2023-03-05T01:49:52;19.73;;;8.90;;
11078;SDS011;5592;49.234;7.268;2023-03-05T01:52:19;21.20;;;9.10;;
11078;SDS011;5592;49.234;7.268;2023-03-05T01:54:48;17.97;;;7.87;;
11078;SDS011;5592;49.234;7.268;2023-03-05T01:57:22;21.27;;;8.57;;
11078;SDS011;5592;49.234;7.268;2023-03-05T01:59:53;16.53;;;8.70;;
11078;SDS011;5592;49.234;7.268;2023-03-05T02:02:23;17.60;;;8.33;;
11078;SDS011;5592;49.234;7.268;2023-03-05T02:04:59;14.00;;;8.10;;
11078;SDS011;5592;49.234;7.268;2023-03-05T02:07:31;16.67;;;8.70;;
11078;SDS011;5592;49.234;7.268;2023-03-05T02:10:01;19.73;;;8.47;;
11078;SDS011;5592;49.234;7.268;2023-03-05T02:12:38;19.90;;;9.80;;
11078;SDS011;5592;49.234;7.268;2023-03-05T02:15:05;19.10;;;9.30;;
11078;SDS011;5592;49.234;7.268;2023-03-05T02:17:34;15.90;;;9.03;;
11078;SDS011;5592;49.234;7.268;2023-03-05T02:20:05;21.20;;;9.43;;
11078;SDS011;5592;49.234;7.268;2023-03-05T02:22:35;22.73;;;10.13;;
11078;SDS011;5592;49.234;7.268;2023-03-05T02:25:00;20.77;;;8.30;;
11078;SDS011;5592;49.234;7.268;2023-03-05T02:27:28;21.50;;;7.90;;
11078;SDS011;5592;49.234;7.268;2023-03-05T02:29:59;15.80;;;8.80;;
11078;SDS011;5592;49.234;7.268;2023-03-05T02:32:25;17.87;;;8.17;;
11078;SDS011;5592;49.234;7.268;2023-03-05T02:34:51;20.97;;;8.83;;
11078;SDS011;5592;49.234;7.268;2023-03-05T02:37:16;21.97;;;9.00;;
11078;SDS011;5592;49.234;7.268;2023-03-05T02:39:42;17.87;;;9.17;;
11078;SDS011;5592;49.234;7.268;2023-03-05T02:42:07;18.43;;;9.97;;
11078;SDS011;5592;49.234;7.268;2023-03-05T02:44:33;19.40;;;9.43;;
11078;SDS011;5592;49.234;7.268;2023-03-05T02:46:59;17.50;;;9.30;;
11078;SDS011;5592;49.234;7.268;2023-03-05T02:49:25;16.97;;;8.57;;
11078;SDS011;5592;49.234;7.268;2023-03-05T02:51:51;16.97;;;8.77;;
11078;SDS011;5592;49.234;7.268;2023-03-05T02:54:19;15.90;;;7.67;;
11078;SDS011;5592;49.234;7.268;2023-03-05T02:56:45;17.93;;;8.73;;
11078;SDS011;5592;49.234;7.268;2023-03-05T02:59:11;18.33;;;8.27;;
11078;SDS011;5592;49.234;7.268;2023-03-05T03:01:36;23.10;;;7.93;;
11078;SDS011;5592;49.234;7.268;2023-03-05T03:04:02;16.70;;;8.97;;
11078;SDS011;5592;49.234;7.268;2023-03-05T03:06:28;19.70;;;8.57;;
11078;SDS011;5592;49.234;7.268;2023-03-05T03:08:54;16.10;;;8.00;;
11078;SDS011;5592;49.234;7.268;2023-03-05T03:11:19;13.67;;;7.47;;
11078;SDS011;5592;49.234;7.268;2023-03-05T03:13:45;15.63;;;8.47;;
11078;SDS011;5592;49.234;7.268;2023-03-05T03:16:13;12.97;;;7.60;;
11078;SDS011;5592;49.234;7.268;2023-03-05T03:18:40;15.50;;;7.03;;
11078;SDS011;5592;49.234;7.268;2023-03-05T03:21:06;16.57;;;8.23;;
11078;SDS011;5592;49.234;7.268;2023-03-05T03:23:32;15.83;;;8.57;;
11078;SDS011;5592;49.234;7.268;2023-03-05T03:25:58;16.07;;;8.60;;
11078;SDS011;5592;49.234;7.268;2023-03-05T03:28:24;18.33;;;8.97;;
11078;SDS011;5592;49.234;7.268;2023-03-05T03:30:50;19.90;;;8.33;;
11078;SDS011;5592;49.234;7.268;2023-03-05T03:33:16;18.23;;;8.70;;
11078;SDS011;5592;49.234;7.268;2023-03-05T03:35:43;15.63;;;7.57;;
11078;SDS011;5592;49.234;7.268;2023-03-05T03:38:10;22.10;;;7.70;;
11078;SDS011;5592;49.234;7.268;2023-03-05T03:40:37;18.30;;;9.73;;
11078;SDS011;5592;49.234;7.268;2023-03-05T03:43:03;14.07;;;7.23;;
11078;SDS011;5592;49.234;7.268;2023-03-05T03:45:29;14.87;;;7.90;;
11078;SDS011;5592;49.234;7.268;2023-03-05T03:47:55;17.63;;;8.00;;
11078;SDS011;5592;49.234;7.268;2023-03-05T03:50:20;14.20;;;7.30;;
11078;SDS011;5592;49.234;7.268;2023-03-05T03:52:48;12.50;;;7.30;;
11078;SDS011;5592;49.234;7.268;2023-03-05T03:55:14;18.57;;;8.60;;
11078;SDS011;5592;49.234;7.268;2023-03-05T03:57:40;16.03;;;8.27;;
11078;SDS011;5592;49.234;7.268;2023-03-05T04:00:07;16.90;;;7.70;;
11078;SDS011;5592;49.234;7.268;2023-03-05T04:02:35;16.97;;;7.77;;
11078;SDS011;5592;49.234;7.268;2023-03-05T04:05:01;11.33;;;6.77;;
11078;SDS011;5592;49.234;7.268;2023-03-05T04:07:27;15.90;;;8.03;;
11078;SDS011;5592;49.234;7.268;2023-03-05T04:09:53;24.87;;;9.33;;
11078;SDS011;5592;49.234;7.268;2023-03-05T04:12:18;16.57;;;8.10;;
11078;SDS011;5592;49.234;7.268;2023-03-05T04:14:45;15.33;;;8.13;;
11078;SDS011;5592;49.234;7.268;2023-03-05T04:17:11;19.10;;;8.60;;
11078;SDS011;5592;49.234;7.268;2023-03-05T04:19:38;11.97;;;7.70;;
11078;SDS011;5592;49.234;7.268;2023-03-05T04:22:05;13.90;;;7.70;;
11078;SDS011;5592;49.234;7.268;2023-03-05T04:24:31;18.70;;;9.30;;
11078;SDS011;5592;49.234;7.268;2023-03-05T04:26:57;16.47;;;8.70;;
11078;SDS011;5592;49.234;7.268;2023-03-05T04:29:22;19.90;;;9.40;;
11078;SDS011;5592;49.234;7.268;2023-03-05T04:31:48;15.67;;;8.30;;
11078;SDS011;5592;49.234;7.268;2023-03-05T04:34:13;19.03;;;9.13;;
11078;SDS011;5592;49.234;7.268;2023-03-05T04:36:39;15.60;;;8.90;;
11078;SDS011;5592;49.234;7.268;2023-03-05T04:39:05;20.17;;;7.70;;
11078;SDS011;5592;49.234;7.268;2023-03-05T04:41:30;17.30;;;9.80;;
11078;SDS011;5592;49.234;7.268;2023-03-05T04:43:56;19.77;;;8.70;;
11078;SDS011;5592;49.234;7.268;2023-03-05T04:46:24;19.63;;;10.17;;
11078;SDS011;5592;49.234;7.268;2023-03-05T04:48:50;17.60;;;9.33;;
11078;SDS011;5592;49.234;7.268;2023-03-05T04:51:15;15.00;;;9.20;;
11078;SDS011;5592;49.234;7.268;2023-03-05T04:53:41;17.93;;;8.93;;
11078;SDS011;5592;49.234;7.268;2023-03-05T04:56:07;16.17;;;7.80;;
11078;SDS011;5592;49.234;7.268;2023-03-05T04:58:32;19.03;;;10.80;;
11078;SDS011;5592;49.234;7.268;2023-03-05T05:01:01;17.27;;;8.73;;
11078;SDS011;5592;49.234;7.268;2023-03-05T05:03:29;15.73;;;8.10;;
11078;SDS011;5592;49.234;7.268;2023-03-05T05:05:55;20.60;;;9.57;;
11078;SDS011;5592;49.234;7.268;2023-03-05T05:08:23;19.20;;;9.57;;
11078;SDS011;5592;49.234;7.268;2023-03-05T05:10:55;19.70;;;9.40;;
11078;SDS011;5592;49.234;7.268;2023-03-05T05:13:25;17.20;;;9.30;;
11078;SDS011;5592;49.234;7.268;2023-03-05T05:15:51;25.27;;;10.77;;
11078;SDS011;5592;49.234;7.268;2023-03-05T05:18:16;18.90;;;9.33;;
11078;SDS011;5592;49.234;7.268;2023-03-05T05:20:42;18.50;;;9.47;;
11078;SDS011;5592;49.234;7.268;2023-03-05T05:23:08;18.17;;;9.50;;
11078;SDS011;5592;49.234;7.268;2023-03-05T05:25:33;20.03;;;9.60;;
11078;SDS011;5592;49.234;7.268;2023-03-05T05:27:59;16.00;;;9.00;;
11078;SDS011;5592;49.234;7.268;2023-03-05T05:30:24;14.83;;;8.83;;
11078;SDS011;5592;49.234;7.268;2023-03-05T05:32:50;18.00;;;9.50;;
11078;SDS011;5592;49.234;7.268;2023-03-05T05:35:16;17.47;;;10.10;;
11078;SDS011;5592;49.234;7.268;2023-03-05T05:37:41;20.40;;;10.10;;
11078;SDS011;5592;49.234;7.268;2023-03-05T05:40:07;16.87;;;9.13;;
11078;SDS011;5592;49.234;7.268;2023-03-05T05:42:33;21.33;;;8.97;;
11078;SDS011;5592;49.234;7.268;2023-03-05T05:44:59;17.07;;;9.00;;
11078;SDS011;5592;49.234;7.268;2023-03-05T05:47:28;17.10;;;9.30;;
11078;SDS011;5592;49.234;7.268;2023-03-05T05:49:54;14.93;;;8.30;;
11078;SDS011;5592;49.234;7.268;2023-03-05T05:52:20;27.20;;;9.83;;
11078;SDS011;5592;49.234;7.268;2023-03-05T05:54:46;16.43;;;8.97;;
11078;SDS011;5592;49.234;7.268;2023-03-05T05:57:12;18.43;;;8.43;;
11078;SDS011;5592;49.234;7.268;2023-03-05T05:59:38;15.90;;;8.00;;
11078;SDS011;5592;49.234;7.268;2023-03-05T06:02:04;17.47;;;9.37;;
11078;SDS011;5592;49.234;7.268;2023-03-05T06:04:35;15.63;;;8.93;;
11078;SDS011;5592;49.234;7.268;2023-03-05T06:07:00;25.13;;;10.80;;
11078;SDS011;5592;49.234;7.268;2023-03-05T06:09:27;21.87;;;9.90;;
11078;SDS011;5592;49.234;7.268;2023-03-05T06:11:52;18.47;;;9.37;;
11078;SDS011;5592;49.234;7.268;2023-03-05T06:14:18;17.30;;;8.87;;
11078;SDS011;5592;49.234;7.268;2023-03-05T06:16:44;26.57;;;9.03;;
11078;SDS011;5592;49.234;7.268;2023-03-05T06:19:10;20.00;;;9.40;;
11078;SDS011;5592;49.234;7.268;2023-03-05T06:21:36;25.80;;;10.20;;
11078;SDS011;5592;49.234;7.268;2023-03-05T06:24:02;17.97;;;9.37;;
11078;SDS011;5592;49.234;7.268;2023-03-05T06:26:28;17.53;;;8.90;;
11078;SDS011;5592;49.234;7.268;2023-03-05T06:28:54;20.77;;;9.30;;
11078;SDS011;5592;49.234;7.268;2023-03-05T06:31:21;14.97;;;7.83;;
11078;SDS011;5592;49.234;7.268;2023-03-05T06:33:52;20.70;;;9.70;;
11078;SDS011;5592;49.234;7.268;2023-03-05T06:36:20;17.47;;;9.97;;
11078;SDS011;5592;49.234;7.268;2023-03-05T06:38:46;18.90;;;8.80;;
11078;SDS011;5592;49.234;7.268;2023-03-05T06:41:13;22.33;;;11.10;;
11078;SDS011;5592;49.234;7.268;2023-03-05T06:43:41;19.57;;;11.07;;
11078;SDS011;5592;49.234;7.268;2023-03-05T06:46:18;24.13;;;10.80;;
11078;SDS011;5592;49.234;7.268;2023-03-05T06:48:45;24.33;;;11.20;;
11078;SDS011;5592;49.234;7.268;2023-03-05T06:51:15;21.73;;;9.90;;
11078;SDS011;5592;49.234;7.268;2023-03-05T06:53:45;22.50;;;10.60;;
11078;SDS011;5592;49.234;7.268;2023-03-05T06:56:12;17.70;;;9.97;;
11078;SDS011;5592;49.234;7.268;2023-03-05T06:58:40;16.80;;;10.43;;
11078;SDS011;5592;49.234;7.268;2023-03-05T07:01:07;13.60;;;8.90;;
11078;SDS011;5592;49.234;7.268;2023-03-05T07:03:35;17.10;;;8.73;;
11078;SDS011;5592;49.234;7.268;2023-03-05T07:06:02;19.97;;;9.50;;
11078;SDS011;5592;49.234;7.268;2023-03-05T07:08:29;16.47;;;8.57;;
11078;SDS011;5592;49.234;7.268;2023-03-05T07:10:55;16.67;;;9.30;;
11078;SDS011;5592;49.234;7.268;2023-03-05T07:13:20;15.87;;;9.33;;
11078;SDS011;5592;49.234;7.268;2023-03-05T07:15:46;19.60;;;10.40;;
11078;SDS011;5592;49.234;7.268;2023-03-05T07:18:11;24.73;;;11.80;;
11078;SDS011;5592;49.234;7.268;2023-03-05T07:20:37;20.67;;;12.23;;
11078;SDS011;5592;49.234;7.268;2023-03-05T07:23:03;18.10;;;10.33;;
11078;SDS011;5592;49.234;7.268;2023-03-05T07:25:29;24.23;;;10.90;;
11078;SDS011;5592;49.234;7.268;2023-03-05T07:27:55;18.50;;;10.33;;
11078;SDS011;5592;49.234;7.268;2023-03-05T07:30:21;20.23;;;10.70;;
11078;SDS011;5592;49.234;7.268;2023-03-05T07:32:47;17.87;;;9.60;;
11078;SDS011;5592;49.234;7.268;2023-03-05T07:35:12;18.97;;;9.33;;
11078;SDS011;5592;49.234;7.268;2023-03-05T07:37:38;16.00;;;9.30;;
11078;SDS011;5592;49.234;7.268;2023-03-05T07:40:04;19.03;;;9.30;;
11078;SDS011;5592;49.234;7.268;2023-03-05T07:42:30;17.00;;;8.87;;
11078;SDS011;5592;49.234;7.268;2023-03-05T07:44:56;14.93;;;9.90;;
11078;SDS011;5592;49.234;7.268;2023-03-05T07:47:22;16.40;;;9.30;;
11078;SDS011;5592;49.234;7.268;2023-03-05T07:49:48;19.60;;;10.40;;
11078;SDS011;5592;49.234;7.268;2023-03-05T07:52:14;14.43;;;9.17;;
11078;SDS011;5592;49.234;7.268;2023-03-05T07:54:40;15.87;;;8.57;;
11078;SDS011;5592;49.234;7.268;2023-03-05T07:57:06;15.10;;;8.80;;
11078;SDS011;5592;49.234;7.268;2023-03-05T07:59:33;17.87;;;9.83;;
11078;SDS011;5592;49.234;7.268;2023-03-05T08:01:59;19.13;;;10.20;;
11078;SDS011;5592;49.234;7.268;2023-03-05T08:04:25;18.07;;;9.17;;
11078;SDS011;5592;49.234;7.268;2023-03-05T08:06:50;17.93;;;9.03;;
11078;SDS011;5592;49.234;7.268;2023-03-05T08:09:16;13.17;;;8.10;;
11078;SDS011;5592;49.234;7.268;2023-03-05T08:11:42;15.33;;;8.00;;
11078;SDS011;5592;49.234;7.268;2023-03-05T08:14:08;16.07;;;8.20;;
11078;SDS011;5592;49.234;7.268;2023-03-05T08:16:35;13.07;;;6.80;;
11078;SDS011;5592;49.234;7.268;2023-03-05T08:19:05;12.50;;;6.87;;
11078;SDS011;5592;49.234;7.268;2023-03-05T08:21:32;17.03;;;6.93;;
11078;SDS011;5592;49.234;7.268;2023-03-05T08:24:00;13.50;;;6.50;;
11078;SDS011;5592;49.234;7.268;2023-03-05T08:26:31;11.03;;;5.80;;
11078;SDS011;5592;49.234;7.268;2023-03-05T08:28:58;10.63;;;6.80;;
11078;SDS011;5592;49.234;7.268;2023-03-05T08:31:24;9.23;;;5.20;;
11078;SDS011;5592;49.234;7.268;2023-03-05T08:33:51;11.67;;;6.17;;
11078;SDS011;5592;49.234;7.268;2023-03-05T08:36:18;11.37;;;6.00;;
11078;SDS011;5592;49.234;7.268;2023-03-05T08:38:44;10.50;;;6.10;;
11078;SDS011;5592;49.234;7.268;2023-03-05T08:41:11;11.03;;;7.00;;
11078;SDS011;5592;49.234;7.268;2023-03-05T08:43:37;14.83;;;6.67;;
11078;SDS011;5592;49.234;7.268;2023-03-05T08:46:03;10.47;;;6.23;;
11078;SDS011;5592;49.234;7.268;2023-03-05T08:48:30;9.77;;;5.30;;
11078;SDS011;5592;49.234;7.268;2023-03-05T08:50:56;10.37;;;5.07;;
11078;SDS011;5592;49.234;7.268;2023-03-05T08:53:22;10.07;;;5.17;;
11078;SDS011;5592;49.234;7.268;2023-03-05T08:55:57;9.13;;;5.33;;
11078;SDS011;5592;49.234;7.268;2023-03-05T08:58:23;9.10;;;5.47;;
11078;SDS011;5592;49.234;7.268;2023-03-05T09:00:49;11.90;;;4.63;;
11078;SDS011;5592;49.234;7.268;2023-03-05T09:03:15;8.50;;;4.13;;
11078;SDS011;5592;49.234;7.268;2023-03-05T09:05:41;7.33;;;4.20;;
11078;SDS011;5592;49.234;7.268;2023-03-05T09:08:07;10.93;;;4.77;;
11078;SDS011;5592;49.234;7.268;2023-03-05T09:10:32;11.40;;;5.10;;
11078;SDS011;5592;49.234;7.268;2023-03-05T09:12:58;8.33;;;4.73;;
11078;SDS011;5592;49.234;7.268;2023-03-05T09:15:23;5.87;;;4.10;;
11078;SDS011;5592;49.234;7.268;2023-03-05T09:17:49;7.43;;;4.00;;
11078;SDS011;5592;49.234;7.268;2023-03-05T09:20:15;8.07;;;4.63;;
11078;SDS011;5592;49.234;7.268;2023-03-05T09:22:41;8.57;;;4.80;;
11078;SDS011;5592;49.234;7.268;2023-03-05T09:25:07;5.37;;;4.00;;
11078;SDS011;5592;49.234;7.268;2023-03-05T09:27:36;7.07;;;4.70;;
11078;SDS011;5592;49.234;7.268;2023-03-05T09:30:05;5.90;;;3.77;;
11078;SDS011;5592;49.234;7.268;2023-03-05T09:32:31;6.20;;;3.63;;
11078;SDS011;5592;49.234;7.268;2023-03-05T09:34:57;5.27;;;3.40;;
11078;SDS011;5592;49.234;7.268;2023-03-05T09:37:23;6.17;;;3.63;;
11078;SDS011;5592;49.234;7.268;2023-03-05T09:39:49;7.40;;;3.70;;
11078;SDS011;5592;49.234;7.268;2023-03-05T09:45:06;6.20;;;3.67;;
11078;SDS011;5592;49.234;7.268;2023-03-05T09:50:41;4.20;;;2.80;;
11078;SDS011;5592;49.234;7.268;2023-03-05T09:53:45;5.10;;;3.53;;
11078;SDS011;5592;49.234;7.268;2023-03-05T09:56:15;5.23;;;3.43;;
11078;SDS011;5592;49.234;7.268;2023-03-05T09:58:54;8.93;;;2.90;;
11078;SDS011;5592;49.234;7.268;2023-03-05T10:01:25;5.57;;;3.50;;
11078;SDS011;5592;49.234;7.268;2023-03-05T10:09:45;6.77;;;3.70;;
11078;SDS011;5592;49.234;7.268;2023-03-05T10:12:18;4.03;;;3.00;;
11078;SDS011;5592;49.234;7.268;2023-03-05T10:14:45;7.30;;;3.77;;
11078;SDS011;5592;49.234;7.268;2023-03-05T10:17:20;4.03;;;2.87;;
11078;SDS011;5592;49.234;7.268;2023-03-05T10:19:51;7.47;;;3.70;;
11078;SDS011;5592;49.234;7.268;2023-03-05T10:28:13;4.87;;;3.37;;
11078;SDS011;5592;49.234;7.268;2023-03-05T10:36:08;5.73;;;3.60;;
11078;SDS011;5592;49.234;7.268;2023-03-05T10:39:11;5.17;;;3.57;;
11078;SDS011;5592;49.234;7.268;2023-03-05T10:44:32;7.07;;;3.33;;
11078;SDS011;5592;49.234;7.268;2023-03-05T10:47:10;6.47;;;3.90;;
11078;SDS011;5592;49.234;7.268;2023-03-05T10:49:57;5.40;;;3.53;;
11078;SDS011;5592;49.234;7.268;2023-03-05T10:52:34;5.73;;;3.40;;
11078;SDS011;5592;49.234;7.268;2023-03-05T10:55:14;4.43;;;3.30;;
11078;SDS011;5592;49.234;7.268;2023-03-05T10:57:42;5.07;;;3.20;;
11078;SDS011;5592;49.234;7.268;2023-03-05T11:00:21;7.23;;;3.83;;
11078;SDS011;5592;49.234;7.268;2023-03-05T11:03:09;4.33;;;3.23;;
11078;SDS011;5592;49.234;7.268;2023-03-05T11:05:42;4.47;;;3.10;;
11078;SDS011;5592;49.234;7.268;2023-03-05T11:13:29;6.87;;;3.37;;
11078;SDS011;5592;49.234;7.268;2023-03-05T11:16:01;5.67;;;3.90;;
11078;SDS011;5592;49.234;7.268;2023-03-05T11:18:32;4.77;;;3.27;;
11078;SDS011;5592;49.234;7.268;2023-03-05T11:21:09;6.10;;;3.30;;
11078;SDS011;5592;49.234;7.268;2023-03-05T11:23:36;4.53;;;3.43;;
11078;SDS011;5592;49.234;7.268;2023-03-05T11:31:23;5.97;;;3.50;;
11078;SDS011;5592;49.234;7.268;2023-03-05T11:34:06;8.37;;;3.97;;
11078;SDS011;5592;49.234;7.268;2023-03-05T11:36:41;6.80;;;3.70;;
11078;SDS011;5592;49.234;7.268;2023-03-05T11:39:10;5.00;;;3.17;;
11078;SDS011;5592;49.234;7.268;2023-03-05T11:41:46;4.30;;;3.60;;
11078;SDS011;5592;49.234;7.268;2023-03-05T11:44:45;7.03;;;3.43;;
11078;SDS011;5592;49.234;7.268;2023-03-05T11:49:58;4.47;;;3.40;;
11078;SDS011;5592;49.234;7.268;2023-03-05T11:52:33;4.63;;;3.30;;
11078;SDS011;5592;49.234;7.268;2023-03-05T12:00:31;5.80;;;3.20;;
11078;SDS011;5592;49.234;7.268;2023-03-05T12:03:06;5.13;;;3.67;;
11078;SDS011;5592;49.234;7.268;2023-03-05T12:05:37;4.17;;;3.07;;
11078;SDS011;5592;49.234;7.268;2023-03-05T12:08:08;5.60;;;3.40;;
11078;SDS011;5592;49.234;7.268;2023-03-05T12:10:39;7.60;;;3.27;;
11078;SDS011;5592;49.234;7.268;2023-03-05T12:13:15;4.50;;;3.43;;
11078;SDS011;5592;49.234;7.268;2023-03-05T12:21:58;7.60;;;3.33;;
11078;SDS011;5592;49.234;7.268;2023-03-05T12:29:28;4.43;;;2.90;;
11078;SDS011;5592;49.234;7.268;2023-03-05T12:32:04;8.40;;;3.97;;
11078;SDS011;5592;49.234;7.268;2023-03-05T12:34:56;4.37;;;3.23;;
11078;SDS011;5592;49.234;7.268;2023-03-05T12:39:58;8.17;;;4.20;;
11078;SDS011;5592;49.234;7.268;2023-03-05T12:47:38;5.90;;;3.60;;
11078;SDS011;5592;49.234;7.268;2023-03-05T12:55:22;5.63;;;3.37;;
11078;SDS011;5592;49.234;7.268;2023-03-05T12:58:07;6.67;;;3.60;;
11078;SDS011;5592;49.234;7.268;2023-03-05T13:03:20;8.10;;;4.90;;
11078;SDS011;5592;49.234;7.268;2023-03-05T13:05:51;7.90;;;4.63;;
11078;SDS011;5592;49.234;7.268;2023-03-05T13:08:22;8.73;;;5.17;;
11078;SDS011;5592;49.234;7.268;2023-03-05T13:10:53;8.00;;;6.00;;
11078;SDS011;5592;49.234;7.268;2023-03-05T13:13:28;6.33;;;4.57;;
11078;SDS011;5592;49.234;7.268;2023-03-05T13:15:57;6.10;;;4.73;;
11078;SDS011;5592;49.234;7.268;2023-03-05T13:18:24;12.03;;;4.90;;
11078;SDS011;5592;49.234;7.268;2023-03-05T13:21:10;10.27;;;5.57;;
11078;SDS011;5592;49.234;7.268;2023-03-05T13:23:51;10.97;;;4.83;;
11078;SDS011;5592;49.234;7.268;2023-03-05T13:26:23;8.87;;;5.40;;
11078;SDS011;5592;49.234;7.268;2023-03-05T13:31:32;6.37;;;4.57;;
11078;SDS011;5592;49.234;7.268;2023-03-05T13:34:17;7.50;;;5.00;;
11078;SDS011;5592;49.234;7.268;2023-03-05T13:37:03;5.13;;;4.23;;
11078;SDS011;5592;49.234;7.268;2023-03-05T13:39:34;6.40;;;4.37;;
11078;SDS011;5592;49.234;7.268;2023-03-05T13:42:13;9.83;;;4.97;;
11078;SDS011;5592;49.234;7.268;2023-03-05T13:44:39;6.03;;;4.40;;
11078;SDS011;5592;49.234;7.268;2023-03-05T13:47:11;7.57;;;5.07;;
11078;SDS011;5592;49.234;7.268;2023-03-05T13:49:41;7.53;;;4.90;;
11078;SDS011;5592;49.234;7.268;2023-03-05T13:52:08;6.70;;;4.27;;
11078;SDS011;5592;49.234;7.268;2023-03-05T13:54:34;6.00;;;4.53;;
11078;SDS011;5592;49.234;7.268;2023-03-05T13:57:02;7.03;;;5.07;;
11078;SDS011;5592;49.234;7.268;2023-03-05T13:59:30;8.40;;;5.47;;
11078;SDS011;5592;49.234;7.268;2023-03-05T14:02:17;8.73;;;5.07;;
11078;SDS011;5592;49.234;7.268;2023-03-05T14:04:44;8.97;;;5.37;;
11078;SDS011;5592;49.234;7.268;2023-03-05T14:09:55;10.57;;;5.70;;
11078;SDS011;5592;49.234;7.268;2023-03-05T14:15:03;10.23;;;5.80;;
11078;SDS011;5592;49.234;7.268;2023-03-05T14:17:43;9.60;;;5.63;;
11078;SDS011;5592;49.234;7.268;2023-03-05T14:20:16;9.40;;;5.80;;
11078;SDS011;5592;49.234;7.268;2023-03-05T14:22:44;10.73;;;5.27;;
11078;SDS011;5592;49.234;7.268;2023-03-05T14:28:01;7.33;;;5.37;;
11078;SDS011;5592;49.234;7.268;2023-03-05T14:30:28;9.93;;;5.63;;
11078;SDS011;5592;49.234;7.268;2023-03-05T14:32:55;8.70;;;5.63;;
11078;SDS011;5592;49.234;7.268;2023-03-05T14:35:25;12.03;;;5.87;;
11078;SDS011;5592;49.234;7.268;2023-03-05T14:37:54;12.20;;;6.30;;
11078;SDS011;5592;49.234;7.268;2023-03-05T14:40:25;12.10;;;6.30;;
11078;SDS011;5592;49.234;7.268;2023-03-05T14:42:59;10.93;;;6.23;;
11078;SDS011;5592;49.234;7.268;2023-03-05T14:45:27;7.90;;;5.50;;
11078;SDS011;5592;49.234;7.268;2023-03-05T14:47:55;10.60;;;6.40;;
11078;SDS011;5592;49.234;7.268;2023-03-05T14:50:25;11.17;;;6.53;;
11078;SDS011;5592;49.234;7.268;2023-03-05T14:52:58;12.97;;;6.30;;
11078;SDS011;5592;49.234;7.268;2023-03-05T14:55:36;8.40;;;5.87;;
11078;SDS011;5592;49.234;7.268;2023-03-05T14:58:10;12.30;;;6.73;;
11078;SDS011;5592;49.234;7.268;2023-03-05T15:00:40;20.23;;;7.70;;
11078;SDS011;5592;49.234;7.268;2023-03-05T15:03:13;10.50;;;6.37;;
11078;SDS011;5592;49.234;7.268;2023-03-05T15:05:41;6.70;;;5.53;;
11078;SDS011;5592;49.234;7.268;2023-03-05T15:08:14;8.47;;;6.10;;
11078;SDS011;5592;49.234;7.268;2023-03-05T15:10:42;10.43;;;5.73;;
11078;SDS011;5592;49.234;7.268;2023-03-05T15:13:08;7.40;;;5.50;;
11078;SDS011;5592;49.234;7.268;2023-03-05T15:15:33;11.80;;;5.63;;
11078;SDS011;5592;49.234;7.268;2023-03-05T15:18:00;7.63;;;6.07;;
11078;SDS011;5592;49.234;7.268;2023-03-05T15:20:27;8.13;;;4.60;;
11078;SDS011;5592;49.234;7.268;2023-03-05T15:22:57;9.53;;;4.60;;
11078;SDS011;5592;49.234;7.268;2023-03-05T15:25:23;6.20;;;4.60;;
11078;SDS011;5592;49.234;7.268;2023-03-05T15:27:52;7.37;;;5.60;;
11078;SDS011;5592;49.234;7.268;2023-03-05T15:32:49;11.10;;;6.03;;
11078;SDS011;5592;49.234;7.268;2023-03-05T15:35:15;5.10;;;4.07;;
11078;SDS011;5592;49.234;7.268;2023-03-05T15:37:41;5.20;;;4.23;;
11078;SDS011;5592;49.234;7.268;2023-03-05T15:40:07;6.50;;;4.80;;
11078;SDS011;5592;49.234;7.268;2023-03-05T15:42:33;7.77;;;4.67;;
11078;SDS011;5592;49.234;7.268;2023-03-05T15:44:59;6.50;;;4.20;;
11078;SDS011;5592;49.234;7.268;2023-03-05T15:47:25;7.00;;;5.07;;
11078;SDS011;5592;49.234;7.268;2023-03-05T15:49:50;8.73;;;4.97;;
11078;SDS011;5592;49.234;7.268;2023-03-05T15:52:16;7.30;;;4.17;;
11078;SDS011;5592;49.234;7.268;2023-03-05T15:54:41;6.70;;;4.07;;
11078;SDS011;5592;49.234;7.268;2023-03-05T15:57:08;7.07;;;4.17;;
11078;SDS011;5592;49.234;7.268;2023-03-05T15:59:34;6.90;;;4.30;;
11078;SDS011;5592;49.234;7.268;2023-03-05T16:02:01;7.27;;;5.07;;
11078;SDS011;5592;49.234;7.268;2023-03-05T16:04:27;7.00;;;4.83;;
11078;SDS011;5592;49.234;7.268;2023-03-05T16:06:53;8.70;;;4.93;;
11078;SDS011;5592;49.234;7.268;2023-03-05T16:09:23;9.47;;;5.70;;
11078;SDS011;5592;49.234;7.268;2023-03-05T16:11:50;8.27;;;5.83;;
11078;SDS011;5592;49.234;7.268;2023-03-05T16:14:18;7.73;;;5.90;;
11078;SDS011;5592;49.234;7.268;2023-03-05T16:16:47;10.80;;;6.37;;
11078;SDS011;5592;49.234;7.268;2023-03-05T16:19:14;7.30;;;4.97;;
11078;SDS011;5592;49.234;7.268;2023-03-05T16:21:42;7.20;;;5.70;;
11078;SDS011;5592;49.234;7.268;2023-03-05T16:24:08;9.50;;;5.60;;